Time;durP1;ratioP1;P1;durP2;ratioP2;P2;SDS_P1;SDS_P2;PMS_P1;PMS_P2;Temp;Humidity;BMP_temperature;BMP_pressure;BME280_temperature;BME280_humidity;BME280_pressure;Samples;Min_cycle;Max_cycle;Signal;HPM_P1;HPM_P2
2023/10/21 00:01:39;;;;;;;228.10;59.97;;;;;;;;;;4973682;28;20510;-47
2023/10/21 00:04:05;;;;;;;231.00;61.00;;;;;;;;;;4973430;28;20515;-47
2023/10/21 00:06:31;;;;;;;229.80;59.75;;;;;;;;;;4973376;28;20440;-48
2023/10/21 00:08:58;;;;;;;230.23;60.90;;;;;;;;;;4973656;28;20280;-48
2023/10/21 00:11:25;;;;;;;230.10;59.78;;;;;;;;;;4973529;28;20419;-48
2023/10/21 00:13:51;;;;;;;233.43;63.58;;;;;;;;;;4973209;28;20173;-48
2023/10/21 00:16:17;;;;;;;229.47;62.53;;;;;;;;;;4973373;28;20285;-49
2023/10/21 00:18:43;;;;;;;228.53;59.40;;;;;;;;;;4973333;28;20405;-48
2023/10/21 00:21:09;;;;;;;230.63;63.33;;;;;;;;;;4973398;28;20404;-49
2023/10/21 00:23:35;;;;;;;230.13;59.97;;;;;;;;;;4973091;28;20431;-48
2023/10/21 00:26:01;;;;;;;231.70;62.47;;;;;;;;;;4973263;28;20467;-48
2023/10/21 00:28:27;;;;;;;230.05;59.95;;;;;;;;;;4973363;28;20417;-48
2023/10/21 00:30:53;;;;;;;232.27;64.60;;;;;;;;;;4973323;28;20235;-48
2023/10/21 00:33:19;;;;;;;231.70;64.00;;;;;;;;;;4972763;28;20507;-47
2023/10/21 00:35:45;;;;;;;232.50;63.50;;;;;;;;;;4965153;28;20472;-48
2023/10/21 00:38:11;;;;;;;229.80;61.13;;;;;;;;;;4973111;28;20440;-48
2023/10/21 00:40:37;;;;;;;231.23;63.17;;;;;;;;;;4973188;28;20591;-48
2023/10/21 00:43:04;;;;;;;232.15;63.17;;;;;;;;;;4972761;28;20226;-48
2023/10/21 00:45:30;;;;;;;233.13;64.45;;;;;;;;;;4972975;28;20284;-49
2023/10/21 00:47:56;;;;;;;230.17;61.80;;;;;;;;;;4981243;28;20309;-47
2023/10/21 00:50:22;;;;;;;229.50;60.37;;;;;;;;;;4972940;28;20950;-48
2023/10/21 00:52:48;;;;;;;229.53;61.77;;;;;;;;;;4972647;28;20494;-48
2023/10/21 00:55:15;;;;;;;233.23;63.92;;;;;;;;;;4972800;28;20460;-48
2023/10/21 00:57:41;;;;;;;233.73;67.30;;;;;;;;;;4972464;28;20189;-48
2023/10/21 01:00:13;;;;;;;227.57;58.85;;;;;;;;;;4984503;28;20172;-49
2023/10/21 01:02:39;;;;;;;227.25;58.92;;;;;;;;;;4972429;28;20255;-47
2023/10/21 01:05:05;;;;;;;232.27;63.08;;;;;;;;;;4972258;28;20275;-48
2023/10/21 01:07:34;;;;;;;229.23;60.38;;;;;;;;;;4972532;28;20300;-48
2023/10/21 01:10:03;;;;;;;230.35;61.63;;;;;;;;;;4976025;28;20161;-49
2023/10/21 01:12:30;;;;;;;230.27;62.28;;;;;;;;;;4979412;28;20288;-48
2023/10/21 01:14:56;;;;;;;232.40;65.32;;;;;;;;;;4978987;28;20189;-49
2023/10/21 01:17:22;;;;;;;225.10;57.50;;;;;;;;;;4979270;28;20173;-49
2023/10/21 01:19:48;;;;;;;227.73;58.20;;;;;;;;;;4979418;28;20408;-48
2023/10/21 01:22:15;;;;;;;226.30;57.17;;;;;;;;;;4979282;28;20400;-48
2023/10/21 01:24:41;;;;;;;231.37;63.07;;;;;;;;;;4979108;28;20741;-49
2023/10/21 01:27:07;;;;;;;228.03;58.97;;;;;;;;;;4979361;28;20431;-48
2023/10/21 01:29:33;;;;;;;229.03;59.87;;;;;;;;;;4979260;28;20404;-48
2023/10/21 01:31:59;;;;;;;231.87;63.40;;;;;;;;;;4979172;28;20503;-49
2023/10/21 01:34:25;;;;;;;232.80;64.93;;;;;;;;;;4978880;28;20520;-49
2023/10/21 01:36:52;;;;;;;230.87;62.87;;;;;;;;;;4979126;28;20448;-48
2023/10/21 01:39:18;;;;;;;227.97;60.50;;;;;;;;;;4979188;28;20392;-48
2023/10/21 01:41:44;;;;;;;227.40;58.77;;;;;;;;;;4979147;28;20543;-48
2023/10/21 01:44:10;;;;;;;230.67;64.00;;;;;;;;;;4978878;28;20504;-49
2023/10/21 01:46:40;;;;;;;232.37;63.17;;;;;;;;;;4979101;28;20449;-49
2023/10/21 01:49:06;;;;;;;227.90;58.77;;;;;;;;;;4979140;28;20415;-49
2023/10/21 01:51:32;;;;;;;227.83;58.10;;;;;;;;;;4978980;28;20405;-48
2023/10/21 01:53:58;;;;;;;230.13;61.60;;;;;;;;;;4978640;28;20432;-48
2023/10/21 01:56:24;;;;;;;227.80;59.93;;;;;;;;;;4979013;28;20557;-48
2023/10/21 01:58:50;;;;;;;228.33;60.07;;;;;;;;;;4979100;28;20402;-48
2023/10/21 02:01:16;;;;;;;229.03;59.77;;;;;;;;;;4978945;28;20436;-49
2023/10/21 02:03:42;;;;;;;229.00;59.53;;;;;;;;;;4978634;28;20407;-48
2023/10/21 02:06:08;;;;;;;231.80;64.27;;;;;;;;;;4978797;28;20519;-47
2023/10/21 02:08:34;;;;;;;227.87;60.23;;;;;;;;;;4979236;28;20412;-47
2023/10/21 02:11:00;;;;;;;229.65;60.20;;;;;;;;;;4978966;28;20417;-48
2023/10/21 02:13:26;;;;;;;228.53;59.77;;;;;;;;;;4978722;28;20173;-48
2023/10/21 02:15:52;;;;;;;231.70;64.07;;;;;;;;;;4978656;28;20452;-48
2023/10/21 02:18:18;;;;;;;226.33;58.20;;;;;;;;;;4978915;28;20832;-49
2023/10/21 02:20:44;;;;;;;229.10;59.90;;;;;;;;;;4977659;28;20775;-48
2023/10/21 02:23:10;;;;;;;230.47;62.00;;;;;;;;;;4975173;28;20476;-48
2023/10/21 02:25:36;;;;;;;227.10;57.95;;;;;;;;;;4975777;28;20471;-48
2023/10/21 02:28:02;;;;;;;226.30;56.57;;;;;;;;;;4975945;28;20659;-49
2023/10/21 02:30:29;;;;;;;229.83;60.53;;;;;;;;;;4975680;28;20499;-48
2023/10/21 02:32:55;;;;;;;234.97;65.33;;;;;;;;;;4975355;28;20835;-47
2023/10/21 02:35:21;;;;;;;228.57;60.78;;;;;;;;;;4975532;28;20461;-49
2023/10/21 02:37:47;;;;;;;229.50;62.60;;;;;;;;;;4975600;28;20193;-49
2023/10/21 02:40:17;;;;;;;229.27;60.35;;;;;;;;;;4975587;28;20401;-48
2023/10/21 02:42:43;;;;;;;230.07;61.43;;;;;;;;;;4975303;28;20178;-47
2023/10/21 02:45:09;;;;;;;233.20;65.50;;;;;;;;;;4975281;28;20417;-47
2023/10/21 02:47:36;;;;;;;233.40;67.00;;;;;;;;;;4975241;28;20912;-48
2023/10/21 02:50:03;;;;;;;228.27;58.80;;;;;;;;;;4975434;28;20405;-48
2023/10/21 02:52:29;;;;;;;231.98;64.85;;;;;;;;;;4975192;28;20708;-49
2023/10/21 02:54:55;;;;;;;226.73;58.87;;;;;;;;;;4974916;28;20218;-48
2023/10/21 02:57:21;;;;;;;227.23;59.83;;;;;;;;;;4975264;28;20765;-48
2023/10/21 02:59:47;;;;;;;228.60;60.73;;;;;;;;;;4975143;28;20812;-48
2023/10/21 03:02:13;;;;;;;229.03;61.03;;;;;;;;;;4974881;28;20401;-49
2023/10/21 03:04:39;;;;;;;230.05;63.17;;;;;;;;;;4974789;28;20849;-48
2023/10/21 03:07:05;;;;;;;229.10;60.03;;;;;;;;;;4975116;28;20268;-48
2023/10/21 03:09:31;;;;;;;232.53;65.47;;;;;;;;;;4974939;28;20260;-48
2023/10/21 03:11:57;;;;;;;226.47;56.97;;;;;;;;;;4974960;28;20756;-48
2023/10/21 03:14:23;;;;;;;229.93;61.77;;;;;;;;;;4974570;28;20471;-48
2023/10/21 03:16:49;;;;;;;226.97;60.03;;;;;;;;;;4974614;28;20969;-48
2023/10/21 03:19:15;;;;;;;226.13;58.03;;;;;;;;;;4974815;28;20402;-48
2023/10/21 03:21:41;;;;;;;229.73;61.17;;;;;;;;;;4974708;28;20404;-48
2023/10/21 03:24:08;;;;;;;229.00;61.97;;;;;;;;;;4974562;28;20514;-49
2023/10/21 03:26:34;;;;;;;232.00;65.23;;;;;;;;;;4974651;28;20416;-49
2023/10/21 03:29:00;;;;;;;228.77;62.13;;;;;;;;;;4974600;28;20413;-49
2023/10/21 03:31:27;;;;;;;231.20;64.70;;;;;;;;;;4974443;28;20408;-48
2023/10/21 03:33:53;;;;;;;232.30;63.60;;;;;;;;;;4974004;28;20406;-48
2023/10/21 03:36:18;;;;;;;229.33;61.23;;;;;;;;;;4974343;28;20483;-49
2023/10/21 03:38:44;;;;;;;232.37;64.27;;;;;;;;;;4974394;28;20424;-48
2023/10/21 03:41:11;;;;;;;228.07;60.10;;;;;;;;;;4978918;28;20463;-48
2023/10/21 03:43:37;;;;;;;232.73;63.28;;;;;;;;;;4973778;28;20904;-48
2023/10/21 03:46:04;;;;;;;229.88;61.85;;;;;;;;;;4973919;28;20378;-48
2023/10/21 03:48:31;;;;;;;229.37;62.03;;;;;;;;;;4973983;28;20185;-49
2023/10/21 03:51:07;;;;;;;225.65;59.28;;;;;;;;;;4973897;28;20496;-48
2023/10/21 03:53:34;;;;;;;230.07;61.90;;;;;;;;;;4973582;28;20238;-48
2023/10/21 03:56:00;;;;;;;232.35;64.57;;;;;;;;;;4973783;28;20510;-49
2023/10/21 03:58:26;;;;;;;228.20;61.10;;;;;;;;;;4973668;28;20546;-48
2023/10/21 04:00:54;;;;;;;229.23;62.07;;;;;;;;;;4973818;28;20201;-49
2023/10/21 04:03:20;;;;;;;227.63;60.25;;;;;;;;;;4973483;28;20934;-49
2023/10/21 04:05:46;;;;;;;229.20;61.30;;;;;;;;;;4973611;28;20203;-48
2023/10/21 04:08:12;;;;;;;229.37;61.53;;;;;;;;;;4973735;28;20181;-48
2023/10/21 04:10:39;;;;;;;226.47;58.17;;;;;;;;;;4973586;28;20820;-48
2023/10/21 04:13:06;;;;;;;232.70;63.73;;;;;;;;;;4973224;28;20934;-48
2023/10/21 04:15:32;;;;;;;228.27;61.38;;;;;;;;;;4973293;28;21043;-49
2023/10/21 04:17:58;;;;;;;230.10;64.23;;;;;;;;;;4973541;28;20168;-47
2023/10/21 04:20:24;;;;;;;230.65;63.15;;;;;;;;;;4973628;28;20504;-48
2023/10/21 04:22:50;;;;;;;236.53;66.40;;;;;;;;;;4973099;28;20610;-47
2023/10/21 04:25:16;;;;;;;226.57;59.30;;;;;;;;;;4973877;28;20432;-48
2023/10/21 04:27:43;;;;;;;227.17;60.10;;;;;;;;;;4973089;28;20924;-48
2023/10/21 04:30:09;;;;;;;227.32;59.60;;;;;;;;;;4973314;28;20421;-49
2023/10/21 04:32:36;;;;;;;232.95;66.15;;;;;;;;;;4973096;28;20177;-48
2023/10/21 04:35:03;;;;;;;231.20;66.75;;;;;;;;;;4972942;28;20186;-48
2023/10/21 04:37:30;;;;;;;229.48;61.97;;;;;;;;;;4973134;28;20174;-47
2023/10/21 04:39:56;;;;;;;232.03;65.30;;;;;;;;;;4973216;28;20649;-48
2023/10/21 04:42:23;;;;;;;233.13;67.17;;;;;;;;;;4972827;28;20420;-47
2023/10/21 04:44:49;;;;;;;228.43;62.67;;;;;;;;;;4972303;28;20451;-48
2023/10/21 04:47:15;;;;;;;228.75;62.30;;;;;;;;;;4973089;28;20638;-48
2023/10/21 04:49:43;;;;;;;228.80;61.00;;;;;;;;;;4973083;28;20188;-48
2023/10/21 04:52:10;;;;;;;224.65;59.40;;;;;;;;;;4973050;28;20227;-48
2023/10/21 04:54:36;;;;;;;228.68;63.53;;;;;;;;;;4972613;28;20216;-48
2023/10/21 04:57:02;;;;;;;227.37;60.43;;;;;;;;;;4973165;28;20209;-49
2023/10/21 04:59:28;;;;;;;229.50;62.38;;;;;;;;;;4972870;28;20909;-48
2023/10/21 05:01:54;;;;;;;231.00;64.83;;;;;;;;;;4972896;28;20179;-49
2023/10/21 05:04:21;;;;;;;228.93;63.33;;;;;;;;;;4972479;28;20425;-48
2023/10/21 05:06:47;;;;;;;227.03;60.57;;;;;;;;;;4972764;28;20475;-48
2023/10/21 05:09:13;;;;;;;229.27;62.00;;;;;;;;;;4972836;28;20423;-49
2023/10/21 05:11:39;;;;;;;228.63;61.20;;;;;;;;;;4972878;28;20412;-47
2023/10/21 05:14:05;;;;;;;225.80;59.97;;;;;;;;;;4972586;28;20936;-48
2023/10/21 05:16:31;;;;;;;229.77;64.37;;;;;;;;;;4972667;28;20490;-49
2023/10/21 05:18:57;;;;;;;229.07;63.53;;;;;;;;;;4972845;28;20782;-48
2023/10/21 05:21:24;;;;;;;227.57;60.80;;;;;;;;;;4972664;28;20658;-49
2023/10/21 05:23:50;;;;;;;227.13;59.97;;;;;;;;;;4972338;28;20413;-47
2023/10/21 05:26:18;;;;;;;225.33;60.23;;;;;;;;;;4972575;28;20185;-48
2023/10/21 05:28:44;;;;;;;228.88;62.63;;;;;;;;;;4964832;28;20415;-48
2023/10/21 05:31:10;;;;;;;228.37;62.27;;;;;;;;;;4972579;28;20178;-48
2023/10/21 05:33:36;;;;;;;231.37;67.00;;;;;;;;;;4972366;28;20435;-49
2023/10/21 05:36:03;;;;;;;227.97;61.83;;;;;;;;;;4972429;28;20464;-48
2023/10/21 05:38:29;;;;;;;232.82;65.93;;;;;;;;;;4972308;28;20427;-49
2023/10/21 05:40:57;;;;;;;224.63;58.57;;;;;;;;;;4972447;28;20209;-48
2023/10/21 05:43:23;;;;;;;227.37;61.93;;;;;;;;;;4972273;28;20408;-48
2023/10/21 05:45:49;;;;;;;226.73;60.93;;;;;;;;;;4972533;28;20746;-48
2023/10/21 05:48:15;;;;;;;228.40;62.67;;;;;;;;;;4972533;28;20412;-48
2023/10/21 05:50:41;;;;;;;230.17;63.10;;;;;;;;;;4972645;28;20412;-48
2023/10/21 05:53:07;;;;;;;233.10;67.30;;;;;;;;;;4972268;28;20412;-48
2023/10/21 05:55:33;;;;;;;230.45;65.50;;;;;;;;;;4972534;28;20497;-48
2023/10/21 05:57:59;;;;;;;225.17;59.30;;;;;;;;;;4981343;28;20208;-49
2023/10/21 06:00:25;;;;;;;226.40;60.17;;;;;;;;;;4975977;28;20419;-47
2023/10/21 06:02:51;;;;;;;230.20;63.40;;;;;;;;;;4975716;28;20408;-49
2023/10/21 06:05:17;;;;;;;225.95;59.60;;;;;;;;;;4975927;28;20798;-49
2023/10/21 06:07:43;;;;;;;225.90;59.93;;;;;;;;;;4975561;28;20192;-48
2023/10/21 06:10:09;;;;;;;228.73;62.10;;;;;;;;;;4975870;28;20454;-47
2023/10/21 06:12:36;;;;;;;233.05;67.07;;;;;;;;;;4975758;28;20408;-48
2023/10/21 06:15:02;;;;;;;227.07;60.75;;;;;;;;;;4975344;28;20677;-48
2023/10/21 06:17:28;;;;;;;226.73;59.75;;;;;;;;;;4975656;28;20188;-49
2023/10/21 06:19:54;;;;;;;230.30;65.72;;;;;;;;;;4975719;28;20177;-48
2023/10/21 06:22:22;;;;;;;228.77;63.30;;;;;;;;;;4975387;28;20216;-49
2023/10/21 06:24:48;;;;;;;226.60;58.92;;;;;;;;;;4975301;28;20421;-47
2023/10/21 06:27:14;;;;;;;229.13;63.37;;;;;;;;;;4975464;28;20186;-47
2023/10/21 06:29:40;;;;;;;225.33;59.73;;;;;;;;;;4975395;28;20416;-48
2023/10/21 06:32:08;;;;;;;227.63;63.72;;;;;;;;;;4975620;28;20492;-48
2023/10/21 06:34:34;;;;;;;229.45;65.00;;;;;;;;;;4975105;28;20233;-48
2023/10/21 06:37:00;;;;;;;225.60;59.47;;;;;;;;;;4975261;28;20232;-48
2023/10/21 06:39:26;;;;;;;227.57;63.17;;;;;;;;;;4975223;28;20844;-48
2023/10/21 06:41:52;;;;;;;231.53;65.80;;;;;;;;;;4975276;28;20416;-48
2023/10/21 06:44:18;;;;;;;228.35;63.03;;;;;;;;;;4974919;28;21019;-48
2023/10/21 06:46:44;;;;;;;226.37;60.07;;;;;;;;;;4975208;28;20185;-48
2023/10/21 06:49:10;;;;;;;227.57;63.70;;;;;;;;;;4975290;28;20964;-47
2023/10/21 06:51:37;;;;;;;226.10;60.13;;;;;;;;;;4973894;28;20188;-47
2023/10/21 06:54:03;;;;;;;229.23;63.33;;;;;;;;;;4971478;28;20229;-48
2023/10/21 06:56:29;;;;;;;228.32;62.90;;;;;;;;;;4969784;28;20204;-48
2023/10/21 06:58:55;;;;;;;232.48;70.43;;;;;;;;;;4974923;28;20224;-48
2023/10/21 07:01:21;;;;;;;232.17;65.37;;;;;;;;;;4973921;28;20178;-48
2023/10/21 07:03:47;;;;;;;231.17;64.27;;;;;;;;;;4972577;28;20528;-48
2023/10/21 07:06:13;;;;;;;229.55;62.88;;;;;;;;;;4974242;28;20430;-48
2023/10/21 07:08:39;;;;;;;229.97;64.00;;;;;;;;;;4973684;28;20189;-48
2023/10/21 07:11:05;;;;;;;229.00;62.67;;;;;;;;;;4973816;28;20913;-48
2023/10/21 07:13:31;;;;;;;228.57;63.37;;;;;;;;;;4974402;28;20427;-47
2023/10/21 07:16:05;;;;;;;227.70;60.47;;;;;;;;;;4974703;28;20680;-48
2023/10/21 07:18:31;;;;;;;226.97;60.80;;;;;;;;;;4974454;28;20428;-48
2023/10/21 07:20:57;;;;;;;228.90;62.03;;;;;;;;;;4974703;28;20416;-47
2023/10/21 07:23:23;;;;;;;230.00;63.63;;;;;;;;;;4974140;28;20420;-48
2023/10/21 07:25:49;;;;;;;231.20;66.30;;;;;;;;;;4974444;28;20436;-48
2023/10/21 07:28:15;;;;;;;228.40;63.07;;;;;;;;;;4974686;28;20444;-48
2023/10/21 07:30:41;;;;;;;225.40;60.73;;;;;;;;;;4974354;28;20417;-47
2023/10/21 07:33:07;;;;;;;228.70;62.13;;;;;;;;;;4973934;28;20763;-48
2023/10/21 07:35:33;;;;;;;228.10;62.53;;;;;;;;;;4974094;28;20216;-48
2023/10/21 07:37:59;;;;;;;230.27;63.83;;;;;;;;;;4974144;28;20927;-48
2023/10/21 07:40:25;;;;;;;232.83;66.73;;;;;;;;;;4974223;28;20496;-48
2023/10/21 07:42:54;;;;;;;234.40;68.67;;;;;;;;;;4973881;28;20417;-48
2023/10/21 07:45:21;;;;;;;231.33;65.67;;;;;;;;;;4974020;28;20496;-47
2023/10/21 07:47:47;;;;;;;230.87;64.20;;;;;;;;;;4974075;28;20405;-47
2023/10/21 07:50:13;;;;;;;232.27;64.57;;;;;;;;;;4974021;28;20484;-48
2023/10/21 07:52:39;;;;;;;233.60;66.30;;;;;;;;;;4973764;28;21105;-47
2023/10/21 07:55:06;;;;;;;234.30;66.53;;;;;;;;;;4973763;28;20436;-48
2023/10/21 07:57:32;;;;;;;229.02;61.97;;;;;;;;;;4973847;28;20901;-48
2023/10/21 07:59:58;;;;;;;234.50;67.63;;;;;;;;;;4973888;28;20185;-48
2023/10/21 08:02:24;;;;;;;231.00;63.13;;;;;;;;;;4973568;28;20428;-47
2023/10/21 08:04:50;;;;;;;232.07;63.80;;;;;;;;;;4973459;28;20958;-48
2023/10/21 08:07:16;;;;;;;228.27;62.87;;;;;;;;;;4973892;28;20433;-48
2023/10/21 08:09:42;;;;;;;230.70;65.40;;;;;;;;;;4973719;28;20425;-47
2023/10/21 08:12:08;;;;;;;233.73;67.67;;;;;;;;;;4973523;28;20929;-48
2023/10/21 08:14:36;;;;;;;233.87;67.47;;;;;;;;;;4973256;28;20531;-48
2023/10/21 08:17:04;;;;;;;233.93;66.87;;;;;;;;;;4973589;28;20511;-47
2023/10/21 08:19:31;;;;;;;235.47;70.33;;;;;;;;;;4973022;28;20508;-48
2023/10/21 08:21:57;;;;;;;229.40;63.07;;;;;;;;;;4973629;28;20752;-48
2023/10/21 08:24:23;;;;;;;233.63;68.07;;;;;;;;;;4973261;28;20425;-48
2023/10/21 08:26:49;;;;;;;229.40;62.40;;;;;;;;;;4973600;28;20449;-48
2023/10/21 08:29:15;;;;;;;230.87;65.07;;;;;;;;;;4973405;28;20408;-48
2023/10/21 08:31:41;;;;;;;231.90;64.70;;;;;;;;;;4973462;28;20410;-47
2023/10/21 08:34:12;;;;;;;231.60;66.03;;;;;;;;;;4973220;28;20437;-48
2023/10/21 08:36:38;;;;;;;231.07;64.47;;;;;;;;;;4973380;28;20460;-47
2023/10/21 08:39:07;;;;;;;230.73;63.83;;;;;;;;;;4973394;28;20424;-47
2023/10/21 08:41:37;;;;;;;232.73;67.17;;;;;;;;;;4973422;28;20451;-47
2023/10/21 08:44:03;;;;;;;237.00;72.93;;;;;;;;;;4972910;28;20424;-48
2023/10/21 08:46:32;;;;;;;230.80;63.37;;;;;;;;;;4973477;28;20433;-48
2023/10/21 08:48:58;;;;;;;231.03;64.27;;;;;;;;;;4973362;28;20476;-46
2023/10/21 08:51:26;;;;;;;233.67;65.93;;;;;;;;;;4973136;28;20460;-47
2023/10/21 08:53:58;;;;;;;236.93;69.53;;;;;;;;;;4972844;28;20430;-47
2023/10/21 08:56:27;;;;;;;234.80;69.60;;;;;;;;;;4973029;28;20458;-47
2023/10/21 08:58:55;;;;;;;232.97;68.37;;;;;;;;;;4973248;28;20405;-47
2023/10/21 09:01:22;;;;;;;232.70;66.67;;;;;;;;;;4973270;28;20487;-48
2023/10/21 09:03:49;;;;;;;234.93;70.43;;;;;;;;;;4972755;28;20399;-47
2023/10/21 09:06:17;;;;;;;232.63;70.60;;;;;;;;;;4972918;28;20807;-47
2023/10/21 09:08:44;;;;;;;230.45;67.57;;;;;;;;;;4973128;28;20437;-47
2023/10/21 09:11:13;;;;;;;236.47;76.07;;;;;;;;;;4973050;28;20181;-48
2023/10/21 09:13:40;;;;;;;238.40;75.80;;;;;;;;;;4972785;28;20438;-48
2023/10/21 09:16:23;;;;;;;244.00;84.53;;;;;;;;;;4972976;28;20449;-48
2023/10/21 09:18:58;;;;;;;238.80;79.17;;;;;;;;;;4973071;28;20402;-48
2023/10/21 09:21:36;;;;;;;237.50;76.63;;;;;;;;;;4972898;28;20945;-47
2023/10/21 09:24:05;;;;;;;240.00;80.77;;;;;;;;;;4972588;28;20417;-47
2023/10/21 09:26:32;;;;;;;240.63;81.57;;;;;;;;;;4972939;28;20404;-47
2023/10/21 09:29:05;;;;;;;243.23;86.40;;;;;;;;;;4972902;28;20413;-46
2023/10/21 09:31:51;;;;;;;233.77;74.43;;;;;;;;;;4975382;28;20408;-48
2023/10/21 09:34:24;;;;;;;237.87;77.93;;;;;;;;;;4976441;28;20432;-48
2023/10/21 09:36:50;;;;;;;237.63;79.97;;;;;;;;;;4992666;28;20897;-47
2023/10/21 09:39:16;;;;;;;234.80;75.43;;;;;;;;;;4996396;28;20400;-48
2023/10/21 09:41:43;;;;;;;237.17;76.57;;;;;;;;;;4995947;28;20814;-47
2023/10/21 09:44:10;;;;;;;238.87;81.70;;;;;;;;;;4995787;28;20425;-48
2023/10/21 09:46:36;;;;;;;239.10;82.40;;;;;;;;;;4995949;28;20419;-48
2023/10/21 09:49:05;;;;;;;242.47;84.67;;;;;;;;;;4996117;28;20403;-47
2023/10/21 09:51:33;;;;;;;245.03;89.13;;;;;;;;;;4995901;28;20534;-47
2023/10/21 09:54:01;;;;;;;247.47;93.73;;;;;;;;;;4987863;28;20464;-48
2023/10/21 09:56:27;;;;;;;247.03;95.73;;;;;;;;;;4976349;28;20456;-48
2023/10/21 09:58:54;;;;;;;250.93;103.93;;;;;;;;;;4976241;28;20402;-48
2023/10/21 10:01:23;;;;;;;250.60;104.03;;;;;;;;;;4976183;28;20543;-47
2023/10/21 10:03:51;;;;;;;247.13;97.77;;;;;;;;;;4975880;28;20410;-48
2023/10/21 10:06:19;;;;;;;244.50;97.07;;;;;;;;;;4975999;28;20515;-49
2023/10/21 10:08:45;;;;;;;243.87;97.30;;;;;;;;;;4976018;28;20432;-49
2023/10/21 10:11:18;;;;;;;247.13;100.87;;;;;;;;;;4976149;28;20409;-48
2023/10/21 10:13:49;;;;;;;245.10;99.23;;;;;;;;;;4987726;28;22023;-49
2023/10/21 10:16:24;;;;;;;246.37;103.47;;;;;;;;;;4995646;28;20518;-49
2023/10/21 10:18:51;;;;;;;246.33;106.80;;;;;;;;;;4981206;28;20998;-48
2023/10/21 10:21:18;;;;;;;248.70;107.83;;;;;;;;;;4955713;29;20402;-48
2023/10/21 10:23:51;;;;;;;247.23;105.93;;;;;;;;;;4954699;28;20402;-48
2023/10/21 10:26:38;;;;;;;250.03;107.40;;;;;;;;;;4955445;29;20410;-48
2023/10/21 10:29:25;;;;;;;248.67;104.77;;;;;;;;;;4955220;29;20397;-48
2023/10/21 10:31:51;;;;;;;247.27;103.83;;;;;;;;;;4954946;28;20412;-48
2023/10/21 10:34:18;;;;;;;248.70;109.30;;;;;;;;;;4954754;28;20520;-49
2023/10/21 10:36:44;;;;;;;243.67;100.97;;;;;;;;;;4956371;28;20988;-49
2023/10/21 10:39:30;;;;;;;246.03;104.47;;;;;;;;;;4956325;29;20406;-48
2023/10/21 10:41:56;;;;;;;246.57;105.73;;;;;;;;;;4955484;28;20803;-49
2023/10/21 10:44:22;;;;;;;243.83;101.33;;;;;;;;;;4955813;29;20929;-48
2023/10/21 10:46:51;;;;;;;247.03;105.73;;;;;;;;;;4956010;29;20950;-48
2023/10/21 10:49:17;;;;;;;244.60;101.77;;;;;;;;;;4956057;28;20416;-48
2023/10/21 10:51:43;;;;;;;247.27;106.90;;;;;;;;;;4955980;29;20410;-48
2023/10/21 10:54:15;;;;;;;245.83;106.07;;;;;;;;;;4964556;28;20432;-48
2023/10/21 10:56:44;;;;;;;245.83;104.57;;;;;;;;;;4975218;28;20495;-48
2023/10/21 10:59:13;;;;;;;245.67;105.87;;;;;;;;;;4975003;28;20401;-48
2023/10/21 11:01:39;;;;;;;241.73;100.00;;;;;;;;;;4975244;28;20401;-48
2023/10/21 11:04:05;;;;;;;246.90;109.17;;;;;;;;;;4974800;28;20424;-48
2023/10/21 11:06:33;;;;;;;244.30;104.17;;;;;;;;;;4975191;28;20431;-48
2023/10/21 11:08:59;;;;;;;245.53;107.47;;;;;;;;;;4975129;28;20451;-48
2023/10/21 11:11:27;;;;;;;245.97;108.03;;;;;;;;;;4975120;28;20409;-48
2023/10/21 11:13:53;;;;;;;243.47;104.27;;;;;;;;;;4974716;28;20409;-47
2023/10/21 11:16:19;;;;;;;244.63;104.33;;;;;;;;;;4975082;28;20539;-48
2023/10/21 11:18:45;;;;;;;247.33;103.37;;;;;;;;;;4974935;28;20410;-48
2023/10/21 11:21:11;;;;;;;244.90;100.13;;;;;;;;;;4992266;28;20899;-48
2023/10/21 11:23:37;;;;;;;244.07;102.13;;;;;;;;;;4993876;28;20405;-48
2023/10/21 11:26:10;;;;;;;244.20;100.83;;;;;;;;;;4994205;28;20906;-47
2023/10/21 11:28:36;;;;;;;247.23;104.67;;;;;;;;;;4980912;28;20432;-47
2023/10/21 11:31:02;;;;;;;245.57;101.53;;;;;;;;;;4963668;28;20441;-47
2023/10/21 11:33:28;;;;;;;249.13;106.30;;;;;;;;;;4953421;29;20416;-47
2023/10/21 11:35:54;;;;;;;247.17;98.33;;;;;;;;;;4953716;29;20544;-47
2023/10/21 11:38:21;;;;;;;244.77;94.90;;;;;;;;;;4954785;29;20485;-47
2023/10/21 11:40:47;;;;;;;245.37;97.27;;;;;;;;;;4953325;28;20402;-47
2023/10/21 11:43:14;;;;;;;245.00;97.57;;;;;;;;;;4954484;29;20417;-47
2023/10/21 11:45:41;;;;;;;243.47;96.10;;;;;;;;;;4955046;29;20491;-47
2023/10/21 11:48:10;;;;;;;243.53;96.73;;;;;;;;;;4955025;29;20961;-47
2023/10/21 11:50:45;;;;;;;242.50;93.60;;;;;;;;;;4955012;29;20410;-48
2023/10/21 11:53:12;;;;;;;238.60;90.43;;;;;;;;;;4955700;28;20889;-48
2023/10/21 12:35:39;;;;;;;246.67;106.17;;;;;;;;;;4973403;28;20802;-47
2023/10/21 12:38:22;;;;;;;245.07;103.27;;;;;;;;;;4973754;28;20407;-47
2023/10/21 12:43:35;;;;;;;242.57;97.37;;;;;;;;;;4973657;28;20939;-47
2023/10/21 12:46:22;;;;;;;243.27;99.80;;;;;;;;;;4973285;28;20417;-47
2023/10/21 12:48:52;;;;;;;247.50;104.83;;;;;;;;;;4973332;28;20491;-47
2023/10/21 12:51:22;;;;;;;243.70;98.50;;;;;;;;;;4973406;28;20396;-47
2023/10/21 12:53:48;;;;;;;241.63;95.17;;;;;;;;;;4972795;28;20534;-47
2023/10/21 12:56:14;;;;;;;242.10;95.20;;;;;;;;;;4973123;28;20973;-48
2023/10/21 12:58:40;;;;;;;243.10;97.90;;;;;;;;;;4973194;28;20439;-47
2023/10/21 13:01:10;;;;;;;244.63;99.57;;;;;;;;;;4973262;28;20392;-46
2023/10/21 13:03:37;;;;;;;241.03;94.97;;;;;;;;;;4973281;28;20404;-48
2023/10/21 13:06:07;;;;;;;239.30;89.60;;;;;;;;;;4972551;28;20448;-47
2023/10/21 13:08:36;;;;;;;243.93;96.97;;;;;;;;;;4973111;28;20400;-47
2023/10/21 13:11:02;;;;;;;248.93;105.83;;;;;;;;;;4973218;28;20773;-48
2023/10/21 13:13:28;;;;;;;241.77;96.70;;;;;;;;;;4972919;28;20405;-47
2023/10/21 13:15:55;;;;;;;242.97;98.67;;;;;;;;;;4972893;28;20585;-48
2023/10/21 13:18:21;;;;;;;248.73;107.63;;;;;;;;;;4989455;28;20419;-47
2023/10/21 13:20:47;;;;;;;248.60;109.10;;;;;;;;;;4992397;28;20396;-47
2023/10/21 13:23:13;;;;;;;246.57;108.17;;;;;;;;;;4991868;28;20768;-48
2023/10/21 13:25:39;;;;;;;245.87;105.07;;;;;;;;;;4992307;28;20433;-47
2023/10/21 13:28:05;;;;;;;247.37;110.70;;;;;;;;;;4992340;28;20402;-47
2023/10/21 13:30:35;;;;;;;245.97;105.73;;;;;;;;;;4992368;28;20450;-47
2023/10/21 13:33:02;;;;;;;245.37;103.80;;;;;;;;;;4992066;28;20778;-47
2023/10/21 13:35:30;;;;;;;247.33;107.80;;;;;;;;;;4992045;28;20430;-48
2023/10/21 13:37:56;;;;;;;241.63;100.40;;;;;;;;;;4992111;28;20403;-48
2023/10/21 13:40:22;;;;;;;245.20;108.33;;;;;;;;;;4992188;28;20481;-48
2023/10/21 13:42:51;;;;;;;242.80;103.77;;;;;;;;;;4991869;28;20402;-48
2023/10/21 13:45:20;;;;;;;242.60;103.83;;;;;;;;;;4991989;28;20987;-47
2023/10/21 13:47:56;;;;;;;241.63;101.53;;;;;;;;;;4992595;28;20403;-47
2023/10/21 13:50:25;;;;;;;243.23;100.13;;;;;;;;;;4992083;28;20408;-47
2023/10/21 13:53:02;;;;;;;245.43;101.50;;;;;;;;;;4991982;28;20487;-47
2023/10/21 13:55:28;;;;;;;244.47;101.07;;;;;;;;;;4972459;28;20437;-47
2023/10/21 13:57:54;;;;;;;242.97;99.00;;;;;;;;;;4973011;28;20441;-48
2023/10/21 14:00:34;;;;;;;247.77;103.93;;;;;;;;;;4974367;28;20932;-47
2023/10/21 14:03:01;;;;;;;244.70;102.33;;;;;;;;;;4991864;28;20415;-47
2023/10/21 14:05:28;;;;;;;243.10;99.47;;;;;;;;;;4991908;28;20420;-47
2023/10/21 14:07:54;;;;;;;240.53;96.50;;;;;;;;;;4992025;28;20423;-47
2023/10/21 14:10:20;;;;;;;235.50;87.13;;;;;;;;;;4992039;28;20410;-47
2023/10/21 14:12:48;;;;;;;242.17;94.77;;;;;;;;;;4991637;28;20408;-48
2023/10/21 14:15:17;;;;;;;243.40;92.03;;;;;;;;;;4991632;28;20434;-47
2023/10/21 14:17:44;;;;;;;241.93;92.33;;;;;;;;;;4975825;28;20457;-47
2023/10/21 14:20:10;;;;;;;241.03;90.93;;;;;;;;;;4976082;28;20400;-47
2023/10/21 14:22:37;;;;;;;241.23;92.73;;;;;;;;;;4975821;28;20400;-48
2023/10/21 14:25:04;;;;;;;239.27;88.57;;;;;;;;;;4975679;28;20931;-47
2023/10/21 14:27:31;;;;;;;240.47;91.07;;;;;;;;;;4975774;28;20399;-48
2023/10/21 14:30:09;;;;;;;240.33;92.30;;;;;;;;;;4968596;28;20459;-47
2023/10/21 14:32:37;;;;;;;238.93;92.27;;;;;;;;;;4962065;28;20407;-47
2023/10/21 14:35:06;;;;;;;239.43;93.73;;;;;;;;;;4956194;28;20432;-49
2023/10/21 14:37:33;;;;;;;242.57;96.83;;;;;;;;;;4956339;28;20559;-48
2023/10/21 14:39:59;;;;;;;241.10;94.53;;;;;;;;;;4956351;28;20933;-48
2023/10/21 14:42:25;;;;;;;240.13;91.43;;;;;;;;;;4956516;29;20839;-47
2023/10/21 14:44:52;;;;;;;241.97;96.60;;;;;;;;;;4956039;29;20468;-47